createdAt,value
2023-02-15T00:00:11.824Z,43.25
2023-02-15T00:02:40.766Z,42.45
2023-02-15T00:05:09.313Z,41.70
2023-02-15T00:07:37.212Z,45.05
2023-02-15T00:10:05.873Z,43.45
2023-02-15T00:12:33.946Z,45.58
2023-02-15T00:15:01.800Z,44.38
2023-02-15T00:17:30.456Z,41.97
2023-02-15T00:19:58.279Z,43.40
2023-02-15T00:22:27.133Z,43.90
2023-02-15T00:24:54.975Z,42.15
2023-02-15T00:27:22.917Z,43.95
2023-02-15T00:29:50.874Z,42.60
2023-02-15T00:32:18.716Z,42.28
2023-02-15T00:34:46.489Z,41.55
2023-02-15T00:37:14.374Z,41.47
2023-02-15T00:39:42.306Z,40.58
2023-02-15T00:42:10.266Z,40.08
2023-02-15T00:44:38.215Z,39.55
2023-02-15T00:47:06.177Z,39.38
2023-02-15T00:49:34.025Z,40.50
2023-02-15T00:52:02.913Z,39.95
2023-02-15T00:54:30.885Z,37.45
2023-02-15T00:56:58.886Z,39.53
2023-02-15T00:59:26.906Z,39.33
2023-02-15T01:01:54.860Z,36.15
2023-02-15T01:04:22.812Z,39.20
2023-02-15T01:06:51.128Z,38.72
2023-02-15T01:09:19.099Z,39.10
2023-02-15T01:11:48.200Z,38.22
2023-02-15T01:14:16.210Z,37.95
2023-02-15T01:16:44.048Z,37.60
2023-02-15T01:19:12.031Z,38.28
2023-02-15T01:21:42.042Z,36.80
2023-02-15T01:24:15.427Z,37.58
2023-02-15T01:26:43.422Z,37.60
2023-02-15T01:29:11.353Z,36.95
2023-02-15T01:31:40.545Z,37.53
2023-02-15T01:34:08.630Z,37.03
2023-02-15T01:36:37.073Z,35.90
2023-02-15T01:39:05.171Z,38.22
2023-02-15T01:41:34.020Z,35.08
2023-02-15T01:44:04.064Z,36.55
2023-02-15T01:46:44.187Z,36.45
2023-02-15T01:49:17.903Z,34.88
2023-02-15T01:51:48.311Z,34.90
2023-02-15T01:54:27.406Z,32.95
2023-02-15T01:57:00.929Z,31.80
2023-02-15T01:59:29.307Z,33.90
2023-02-15T02:02:00.827Z,33.25
2023-02-15T02:04:52.101Z,31.90
2023-02-15T02:07:23.703Z,33.70
2023-02-15T02:09:51.815Z,32.50
2023-02-15T02:12:22.607Z,33.28
2023-02-15T02:14:52.706Z,34.22
2023-02-15T02:17:28.126Z,32.13
2023-02-15T02:20:29.910Z,31.90
2023-02-15T02:23:33.364Z,30.52
2023-02-15T02:26:10.248Z,32.55
2023-02-15T02:28:43.985Z,33.20
2023-02-15T02:31:30.617Z,32.13
2023-02-15T02:34:18.391Z,30.33
2023-02-15T02:37:24.567Z,31.25
2023-02-15T02:40:01.877Z,32.15
2023-02-15T02:42:51.683Z,31.73
2023-02-15T02:45:44.815Z,32.35
2023-02-15T02:48:21.046Z,32.45
2023-02-15T02:50:50.720Z,31.00
2023-02-15T02:53:18.568Z,31.23
2023-02-15T02:56:00.134Z,31.60
2023-02-15T02:58:36.378Z,29.55
2023-02-15T03:01:13.119Z,30.17
2023-02-15T03:03:48.006Z,29.15
2023-02-15T03:06:30.351Z,29.15
2023-02-15T03:09:25.149Z,29.53
2023-02-15T03:11:53.068Z,29.10
2023-02-15T03:14:22.817Z,29.35
2023-02-15T03:16:52.997Z,29.58
2023-02-15T03:19:28.760Z,30.33
2023-02-15T03:22:10.456Z,31.65
2023-02-15T03:24:54.592Z,29.38
2023-02-15T03:27:28.891Z,30.05
2023-02-15T03:30:00.022Z,30.20
2023-02-15T03:32:30.865Z,30.02
2023-02-15T03:34:58.872Z,31.48
2023-02-15T03:37:40.332Z,30.05
2023-02-15T03:40:45.852Z,31.48
2023-02-15T03:43:35.800Z,31.40
2023-02-15T03:46:19.233Z,30.75
2023-02-15T03:49:07.359Z,32.42
2023-02-15T03:51:40.602Z,32.33
2023-02-15T03:54:38.902Z,30.60
2023-02-15T03:57:58.372Z,30.08
2023-02-15T04:00:44.929Z,31.13
2023-02-15T04:03:48.090Z,32.30
2023-02-15T04:06:16.035Z,29.90
2023-02-15T04:09:02.341Z,31.02
2023-02-15T04:11:30.221Z,31.77
2023-02-15T04:13:58.158Z,31.55
2023-02-15T04:16:26.978Z,30.42
2023-02-15T04:19:13.959Z,30.02
2023-02-15T04:22:00.486Z,31.35
2023-02-15T04:24:46.828Z,29.80
2023-02-15T04:27:15.721Z,30.02
2023-02-15T04:29:44.260Z,29.95
2023-02-15T04:32:12.234Z,30.90
2023-02-15T04:34:40.205Z,30.08
2023-02-15T04:37:08.097Z,30.15
2023-02-15T04:39:36.029Z,30.50
2023-02-15T04:42:03.985Z,29.58
2023-02-15T04:44:31.783Z,30.88
2023-02-15T04:46:59.664Z,30.85
2023-02-15T04:49:27.533Z,31.30
2023-02-15T04:51:55.419Z,31.13
2023-02-15T04:54:23.339Z,29.08
2023-02-15T04:56:51.241Z,31.35
2023-02-15T04:59:19.074Z,30.70
2023-02-15T05:01:46.877Z,31.10
2023-02-15T05:04:14.905Z,28.70
2023-02-15T05:06:42.777Z,29.92
2023-02-15T05:09:12.625Z,28.65
2023-02-15T05:11:40.504Z,28.35
2023-02-15T05:14:08.866Z,28.23
2023-02-15T05:16:36.726Z,28.23
2023-02-15T05:19:05.058Z,30.13
2023-02-15T05:21:34.062Z,29.15
2023-02-15T05:24:01.904Z,28.15
2023-02-15T05:26:48.247Z,29.08
2023-02-15T05:29:16.128Z,30.67
2023-02-15T05:31:48.726Z,29.10
2023-02-15T05:34:16.620Z,28.20
2023-02-15T05:36:44.490Z,29.75
2023-02-15T05:39:12.370Z,28.38
2023-02-15T05:41:40.273Z,30.20
2023-02-15T05:44:08.100Z,29.33
2023-02-15T05:46:35.996Z,27.60
2023-02-15T05:49:04.185Z,28.48
2023-02-15T05:51:32.085Z,28.33
2023-02-15T05:53:59.960Z,28.38
2023-02-15T05:56:27.839Z,27.25
2023-02-15T05:58:56.071Z,27.90
2023-02-15T06:01:24.186Z,28.75
2023-02-15T06:03:53.297Z,26.92
2023-02-15T06:06:21.206Z,28.42
2023-02-15T06:08:49.386Z,27.67
2023-02-15T06:11:17.347Z,27.77
2023-02-15T06:13:45.230Z,27.83
2023-02-15T06:16:13.090Z,28.85
2023-02-15T06:18:40.986Z,27.85
2023-02-15T06:21:08.859Z,28.10
2023-02-15T06:23:36.728Z,30.13
2023-02-15T06:26:04.888Z,29.63
2023-02-15T06:28:32.835Z,30.00
2023-02-15T06:31:00.793Z,30.70
2023-02-15T06:33:28.808Z,28.27
2023-02-15T06:35:56.641Z,30.17
2023-02-15T06:38:24.463Z,28.90
2023-02-15T06:40:52.331Z,29.02
2023-02-15T06:43:20.181Z,28.17
2023-02-15T06:45:48.171Z,27.25
2023-02-15T06:48:16.211Z,27.55
2023-02-15T06:50:44.275Z,28.77
2023-02-15T06:53:12.182Z,30.83
2023-02-15T06:55:40.051Z,29.95
2023-02-15T06:58:07.935Z,30.67
2023-02-15T07:00:35.779Z,29.48
2023-02-15T07:03:04.098Z,30.90
2023-02-15T07:05:35.226Z,29.20
2023-02-15T07:08:03.400Z,31.60
2023-02-15T07:10:31.410Z,29.80
2023-02-15T07:12:59.355Z,29.90
2023-02-15T07:15:27.358Z,32.58
2023-02-15T07:17:55.222Z,32.95
2023-02-15T07:20:24.637Z,31.50
2023-02-15T07:22:53.056Z,34.38
2023-02-15T07:25:21.365Z,31.00
2023-02-15T07:27:49.213Z,33.65
2023-02-15T07:30:18.416Z,32.13
2023-02-15T07:33:05.859Z,32.35
2023-02-15T07:35:35.047Z,33.97
2023-02-15T07:38:02.942Z,32.40
2023-02-15T07:40:30.957Z,33.40
2023-02-15T07:43:00.351Z,32.40
2023-02-15T07:45:28.396Z,34.05
2023-02-15T07:47:56.484Z,33.53
2023-02-15T07:50:24.526Z,33.22
2023-02-15T07:52:52.455Z,34.00
2023-02-15T07:55:20.744Z,34.17
2023-02-15T07:57:51.175Z,33.63
2023-02-15T08:00:24.686Z,37.58
2023-02-15T08:03:13.695Z,36.95
2023-02-15T08:05:44.383Z,36.00
2023-02-15T08:08:31.823Z,38.03
2023-02-15T08:11:21.858Z,36.25
2023-02-15T08:13:57.693Z,35.90
2023-02-15T08:16:36.250Z,36.05
2023-02-15T08:19:08.351Z,35.88
2023-02-15T08:21:39.132Z,34.30
2023-02-15T08:24:09.753Z,36.20
2023-02-15T08:26:41.785Z,34.00
2023-02-15T08:29:11.435Z,34.42
2023-02-15T08:31:42.185Z,35.30
2023-02-15T08:34:12.770Z,35.30
2023-02-15T08:36:40.973Z,35.83
2023-02-15T08:39:09.218Z,34.88
2023-02-15T08:42:02.640Z,35.70
2023-02-15T08:47:03.938Z,34.50
2023-02-15T08:49:32.679Z,35.28
2023-02-15T08:52:00.936Z,36.40
2023-02-15T08:54:28.915Z,34.72
2023-02-15T08:56:56.836Z,34.92
2023-02-15T08:59:26.672Z,34.85
2023-02-15T09:01:55.174Z,34.58
2023-02-15T09:04:23.776Z,33.90
2023-02-15T09:06:52.598Z,33.90
2023-02-15T09:09:21.221Z,35.45
2023-02-15T09:11:56.788Z,35.83
2023-02-15T09:14:27.874Z,36.05
2023-02-15T09:16:56.504Z,35.55
2023-02-15T09:19:25.178Z,38.38
2023-02-15T09:21:53.365Z,37.90
2023-02-15T09:24:21.382Z,39.53
2023-02-15T09:26:49.964Z,42.67
2023-02-15T09:29:19.227Z,44.95
2023-02-15T09:31:50.176Z,45.47
2023-02-15T09:34:21.124Z,46.67
2023-02-15T09:36:50.127Z,49.53
2023-02-15T09:39:21.091Z,50.20
2023-02-15T09:41:55.204Z,53.92
2023-02-15T09:44:42.166Z,58.60
2023-02-15T09:47:47.434Z,58.15
2023-02-15T09:50:35.093Z,58.00
2023-02-15T09:53:25.900Z,51.63
2023-02-15T09:56:15.396Z,46.33
2023-02-15T09:58:52.420Z,41.58
2023-02-15T10:01:44.285Z,47.80
2023-02-15T10:04:36.850Z,47.55
2023-02-15T10:07:29.434Z,46.92
2023-02-15T10:10:16.411Z,45.38
2023-02-15T10:13:12.500Z,46.00
2023-02-15T10:15:59.897Z,45.80
2023-02-15T10:18:33.742Z,45.45
2023-02-15T10:21:13.512Z,41.30
2023-02-15T10:23:56.471Z,40.30
2023-02-15T10:26:37.274Z,36.92
2023-02-15T10:29:29.560Z,36.42
2023-02-15T10:32:06.815Z,35.60
2023-02-15T10:34:43.570Z,35.80
2023-02-15T10:37:18.442Z,34.45
2023-02-15T10:40:07.877Z,33.60
2023-02-15T10:42:41.736Z,32.63
2023-02-15T10:45:25.269Z,33.63
2023-02-15T10:48:14.413Z,32.92
2023-02-15T10:50:48.202Z,32.10
2023-02-15T10:53:45.190Z,33.97
2023-02-15T10:56:29.977Z,32.90
2023-02-15T10:59:27.382Z,32.03
2023-02-15T11:02:02.361Z,31.52
2023-02-15T11:04:48.704Z,30.55
2023-02-15T11:07:28.060Z,31.92
2023-02-15T11:10:06.325Z,32.80
2023-02-15T11:12:34.819Z,30.88
2023-02-15T11:15:16.882Z,33.70
2023-02-15T11:17:52.273Z,33.13
2023-02-15T11:20:25.822Z,31.98
2023-02-15T11:22:54.960Z,34.17
2023-02-15T11:25:31.715Z,35.08
2023-02-15T11:28:01.108Z,32.38
2023-02-15T11:30:52.879Z,35.88
2023-02-15T11:33:30.416Z,34.63
2023-02-15T11:36:10.081Z,33.75
2023-02-15T11:38:44.466Z,33.58
2023-02-15T11:41:21.132Z,32.95
2023-02-15T11:44:02.237Z,33.45
2023-02-15T11:46:30.232Z,33.15
2023-02-15T11:48:59.578Z,32.97
2023-02-15T11:51:29.958Z,32.72
2023-02-15T11:53:58.048Z,32.95
2023-02-15T11:56:27.709Z,30.48
2023-02-15T11:58:59.097Z,31.45
2023-02-15T12:01:43.774Z,32.77
2023-02-15T12:04:25.941Z,30.80
2023-02-15T12:07:03.120Z,28.85
2023-02-15T12:09:39.930Z,28.80
2023-02-15T12:12:31.772Z,27.83
2023-02-15T12:15:05.602Z,27.30
2023-02-15T12:17:53.469Z,26.40
2023-02-15T12:20:21.375Z,26.10
2023-02-15T12:23:14.737Z,25.15
2023-02-15T12:25:55.565Z,25.80
2023-02-15T12:28:41.057Z,25.60
2023-02-15T12:31:42.464Z,25.35
2023-02-15T12:34:40.835Z,24.42
2023-02-15T12:37:20.179Z,25.08
2023-02-15T12:39:57.983Z,23.67
2023-02-15T12:42:27.792Z,25.25
2023-02-15T12:45:05.141Z,25.08
2023-02-15T12:47:33.676Z,26.58
2023-02-15T12:50:34.589Z,24.77
2023-02-15T12:53:24.860Z,23.67
2023-02-15T12:55:58.319Z,24.70
2023-02-15T12:58:28.278Z,24.48
2023-02-15T13:01:26.960Z,23.83
2023-02-15T13:04:05.600Z,23.08
2023-02-15T13:06:36.626Z,21.98
2023-02-15T13:09:13.463Z,22.30
2023-02-15T13:11:45.098Z,25.25
2023-02-15T13:14:33.876Z,26.83
2023-02-15T13:17:07.082Z,24.92
2023-02-15T13:19:51.815Z,24.50
2023-02-15T13:22:49.170Z,25.33
2023-02-15T13:25:26.513Z,25.17
2023-02-15T13:27:58.537Z,23.33
2023-02-15T13:30:33.773Z,23.15
2023-02-15T13:33:07.912Z,22.88
2023-02-15T13:35:51.505Z,21.50
2023-02-15T13:38:38.876Z,21.40
2023-02-15T13:41:14.623Z,22.35
2023-02-15T13:43:47.916Z,22.08
2023-02-15T13:46:30.854Z,22.75
2023-02-15T13:49:18.072Z,22.75
2023-02-15T13:52:05.668Z,21.77
2023-02-15T13:55:11.871Z,23.52
2023-02-15T13:58:13.574Z,22.98
2023-02-15T14:00:47.125Z,22.70
2023-02-15T14:03:52.723Z,20.48
2023-02-15T14:06:50.796Z,20.20
2023-02-15T14:09:29.436Z,16.80
2023-02-15T14:12:09.338Z,21.15
2023-02-15T14:15:03.255Z,22.52
2023-02-15T14:17:46.409Z,21.83
2023-02-15T14:20:45.425Z,23.42
2023-02-15T14:23:31.181Z,23.38
2023-02-15T14:26:15.366Z,26.83
2023-02-15T14:29:13.807Z,26.40
2023-02-15T14:31:50.713Z,25.45
2023-02-15T14:34:43.975Z,26.30
2023-02-15T14:37:15.413Z,26.70
2023-02-15T14:40:16.137Z,25.40
2023-02-15T14:42:49.334Z,26.58
2023-02-15T14:45:44.848Z,26.95
2023-02-15T14:48:31.179Z,28.58
2023-02-15T14:50:59.143Z,28.52
2023-02-15T14:53:33.132Z,29.50
2023-02-15T14:56:11.098Z,32.38
2023-02-15T14:58:39.469Z,32.13
2023-02-15T15:01:29.929Z,31.33
2023-02-15T15:04:23.152Z,33.53
2023-02-15T15:07:03.502Z,35.67
2023-02-15T15:09:35.172Z,41.35
2023-02-15T15:12:35.324Z,43.88
2023-02-15T15:15:05.260Z,34.97
2023-02-15T15:17:33.570Z,36.72
2023-02-15T15:20:02.734Z,35.80
2023-02-15T15:22:34.291Z,35.30
2023-02-15T15:25:11.905Z,36.20
2023-02-15T15:27:44.794Z,41.60
2023-02-15T15:32:55.595Z,41.63
2023-02-15T15:35:45.140Z,43.75
2023-02-15T15:38:31.345Z,45.53
2023-02-15T15:41:25.516Z,43.92
2023-02-15T15:44:22.582Z,48.15
2023-02-15T15:47:07.442Z,47.35
2023-02-15T15:49:39.294Z,47.00
2023-02-15T15:52:16.779Z,49.55
2023-02-15T15:54:48.414Z,46.95
2023-02-15T15:57:46.958Z,47.17
2023-02-15T16:00:39.502Z,46.20
2023-02-15T16:03:14.946Z,47.87
2023-02-15T16:05:42.987Z,46.25
2023-02-15T16:08:10.867Z,47.08
2023-02-15T16:10:39.130Z,49.35
2023-02-15T16:13:08.330Z,48.33
2023-02-15T16:15:45.878Z,47.75
2023-02-15T16:18:18.335Z,47.58
2023-02-15T16:21:04.638Z,48.72
2023-02-15T16:23:41.023Z,47.97
2023-02-15T16:26:20.071Z,49.17
2023-02-15T16:28:52.856Z,50.88
2023-02-15T16:31:23.914Z,49.42
2023-02-15T16:33:56.685Z,48.17
2023-02-15T16:36:25.950Z,50.90
2023-02-15T16:38:53.745Z,49.35
2023-02-15T16:41:34.326Z,49.47
2023-02-15T16:44:08.725Z,50.45
2023-02-15T16:46:44.025Z,49.78
2023-02-15T16:49:20.785Z,47.58
2023-02-15T16:52:06.824Z,49.60
2023-02-15T16:54:36.442Z,48.28
2023-02-15T16:57:04.565Z,50.08
2023-02-15T16:59:44.522Z,45.22
2023-02-15T17:02:49.429Z,44.42
2023-02-15T17:05:16.903Z,44.30
2023-02-15T17:08:05.684Z,43.70
2023-02-15T17:10:38.226Z,43.40
2023-02-15T17:13:15.033Z,44.78
2023-02-15T17:16:02.206Z,45.33
2023-02-15T17:18:48.506Z,46.10
2023-02-15T17:21:22.409Z,43.92
2023-02-15T17:23:53.879Z,46.45
2023-02-15T17:26:29.860Z,47.30
2023-02-15T17:29:12.425Z,47.67
2023-02-15T17:31:41.924Z,46.50
2023-02-15T17:34:49.451Z,47.85
2023-02-15T17:37:37.838Z,48.85
2023-02-15T17:40:33.682Z,50.28
2023-02-15T17:43:01.901Z,52.83
2023-02-15T17:45:41.569Z,50.15
2023-02-15T17:48:31.951Z,52.05
2023-02-15T17:51:03.150Z,51.17
2023-02-15T17:53:31.518Z,53.28
2023-02-15T17:55:59.605Z,55.30
2023-02-15T17:58:27.577Z,55.67
2023-02-15T18:01:17.594Z,59.95
2023-02-15T18:04:10.359Z,61.20
2023-02-15T18:07:00.346Z,60.37
2023-02-15T18:09:47.193Z,59.15
2023-02-15T18:12:23.936Z,54.97
2023-02-15T18:14:54.438Z,55.97
2023-02-15T18:17:30.085Z,53.90
2023-02-15T18:19:58.053Z,51.80
2023-02-15T18:22:29.114Z,52.97
2023-02-15T18:24:57.035Z,50.72
2023-02-15T18:27:24.934Z,49.65
2023-02-15T18:29:52.809Z,50.75
2023-02-15T18:32:32.890Z,53.17
2023-02-15T18:35:03.813Z,52.72
2023-02-15T18:37:33.627Z,51.97
2023-02-15T18:40:04.410Z,50.90
2023-02-15T18:42:35.376Z,46.90
2023-02-15T18:45:16.556Z,47.42
2023-02-15T18:47:46.225Z,46.70
2023-02-15T18:50:16.473Z,43.95
2023-02-15T18:52:47.538Z,44.03
2023-02-15T18:55:18.494Z,43.83
2023-02-15T18:57:48.883Z,44.17
2023-02-15T19:00:28.528Z,46.08
2023-02-15T19:02:57.540Z,51.55
2023-02-15T19:05:30.217Z,49.65
2023-02-15T19:08:00.156Z,49.88
2023-02-15T19:10:30.621Z,48.42
2023-02-15T19:12:58.854Z,48.38
2023-02-15T19:15:30.659Z,47.58
2023-02-15T19:17:58.800Z,47.30
2023-02-15T19:20:39.937Z,46.53
2023-02-15T19:23:15.737Z,46.20
2023-02-15T19:25:43.685Z,46.00
2023-02-15T19:28:29.832Z,46.85
2023-02-15T19:30:57.986Z,45.55
2023-02-15T19:33:26.147Z,45.35
2023-02-15T19:35:58.178Z,46.33
2023-02-15T19:38:32.006Z,43.95
2023-02-15T19:41:08.240Z,44.33
2023-02-15T19:43:36.743Z,46.40
2023-02-15T19:46:05.962Z,45.60
2023-02-15T19:48:34.805Z,46.17
2023-02-15T19:51:04.800Z,44.15
2023-02-15T19:53:34.244Z,46.22
2023-02-15T19:56:04.247Z,44.40
2023-02-15T19:58:34.929Z,45.80
2023-02-15T20:01:04.282Z,45.00
2023-02-15T20:03:34.687Z,46.30
2023-02-15T20:06:04.382Z,44.85
2023-02-15T20:08:33.356Z,46.10
2023-02-15T20:11:02.381Z,45.15
2023-02-15T20:13:31.427Z,45.08
2023-02-15T20:16:02.583Z,45.38
2023-02-15T20:18:31.803Z,45.55
2023-02-15T20:21:02.859Z,45.33
2023-02-15T20:23:38.416Z,45.13
2023-02-15T20:26:19.514Z,44.38
2023-02-15T20:28:51.058Z,43.33
2023-02-15T20:31:21.773Z,44.35
2023-02-15T20:33:51.265Z,45.42
2023-02-15T20:36:22.434Z,45.05
2023-02-15T20:38:52.317Z,43.90
2023-02-15T20:41:37.002Z,45.75
2023-02-15T20:44:26.565Z,45.72
2023-02-15T20:46:57.301Z,42.97
2023-02-15T20:49:27.087Z,45.15
2023-02-15T20:51:56.352Z,44.13
2023-02-15T20:54:26.902Z,44.88
2023-02-15T20:56:54.650Z,46.17
2023-02-15T20:59:32.159Z,45.08
2023-02-15T21:02:21.141Z,45.28
2023-02-15T21:04:48.938Z,44.35
2023-02-15T21:07:18.955Z,46.70
2023-02-15T21:09:47.058Z,43.75
2023-02-15T21:12:17.289Z,45.65
2023-02-15T21:14:45.681Z,48.60
2023-02-15T21:17:16.252Z,47.67
2023-02-15T21:19:44.098Z,49.67
2023-02-15T21:22:14.563Z,46.25
2023-02-15T21:24:51.201Z,47.40
2023-02-15T21:27:19.166Z,45.65
2023-02-15T21:29:46.872Z,46.00
2023-02-15T21:32:14.707Z,47.47
2023-02-15T21:34:42.497Z,44.58
2023-02-15T21:37:30.530Z,46.53
2023-02-15T21:39:58.486Z,46.92
2023-02-15T21:42:46.802Z,47.80
2023-02-15T21:45:37.635Z,46.63
2023-02-15T21:48:05.513Z,47.40
2023-02-15T21:50:54.393Z,45.20
2023-02-15T21:53:33.569Z,45.28
2023-02-15T21:56:03.842Z,45.65
2023-02-15T21:58:35.836Z,46.72
2023-02-15T22:01:05.938Z,47.40
2023-02-15T22:03:36.443Z,45.55
2023-02-15T22:06:04.702Z,45.00
2023-02-15T22:08:33.224Z,47.63
2023-02-15T22:11:01.096Z,45.58
2023-02-15T22:13:32.357Z,46.90
2023-02-15T22:16:00.228Z,46.22
2023-02-15T22:18:33.973Z,45.60
2023-02-15T22:21:03.901Z,46.38
2023-02-15T22:23:32.392Z,46.50
2023-02-15T22:26:05.450Z,46.60
2023-02-15T22:28:51.749Z,45.50
2023-02-15T22:31:21.707Z,46.38
2023-02-15T22:33:52.528Z,44.95
2023-02-15T22:36:30.170Z,44.25
2023-02-15T22:38:58.505Z,46.17
2023-02-15T22:41:29.435Z,45.42
2023-02-15T22:43:57.909Z,46.13
2023-02-15T22:46:26.745Z,45.50
2023-02-15T22:48:54.630Z,45.15
2023-02-15T22:51:24.145Z,44.90
2023-02-15T22:53:52.504Z,43.10
2023-02-15T22:56:38.880Z,43.60
2023-02-15T22:59:16.202Z,43.15
2023-02-15T23:01:44.017Z,41.25
2023-02-15T23:04:20.938Z,43.95
2023-02-15T23:06:49.147Z,41.88
2023-02-15T23:09:17.049Z,41.45
2023-02-15T23:11:46.189Z,40.58
2023-02-15T23:14:35.246Z,40.70
2023-02-15T23:17:03.145Z,41.03
2023-02-15T23:19:30.834Z,37.65
2023-02-15T23:21:58.590Z,38.58
2023-02-15T23:24:31.601Z,39.03
2023-02-15T23:27:19.294Z,35.83
2023-02-15T23:29:47.117Z,37.58
2023-02-15T23:32:15.726Z,37.08
2023-02-15T23:34:43.581Z,35.13
2023-02-15T23:37:13.485Z,34.00
2023-02-15T23:39:59.804Z,33.55
2023-02-15T23:42:33.845Z,34.60
2023-02-15T23:45:02.434Z,35.05
2023-02-15T23:47:53.715Z,36.00
2023-02-15T23:50:29.496Z,37.03
2023-02-15T23:52:57.594Z,37.90
2023-02-15T23:55:37.551Z,37.17
2023-02-15T23:58:17.038Z,36.65
